createdAt,value
2023-05-08T00:01:54.996Z,101150.78
2023-05-08T00:04:24.574Z,101148.84
2023-05-08T00:06:54.388Z,101153.13
2023-05-08T00:09:24.030Z,101153.56
2023-05-08T00:11:53.548Z,101152.66
2023-05-08T00:14:23.132Z,101158.84
2023-05-08T00:16:55.271Z,101155.50
2023-05-08T00:19:24.864Z,101155.34
2023-05-08T00:21:54.357Z,101156.19
2023-05-08T00:24:23.892Z,101142.41
2023-05-08T00:26:53.624Z,101151.81
2023-05-08T00:29:23.152Z,101148.97
2023-05-08T00:31:55.301Z,101149.56
2023-05-08T00:34:24.875Z,101141.47
2023-05-08T00:36:54.627Z,101147.00
2023-05-08T00:39:24.127Z,101141.59
2023-05-08T00:41:53.694Z,101138.25
2023-05-08T00:44:23.248Z,101156.22
2023-05-08T00:46:55.420Z,101147.03
2023-05-08T00:49:25.380Z,101155.03
2023-05-08T00:51:58.314Z,101153.94
2023-05-08T00:54:29.861Z,101149.41
2023-05-08T00:56:59.860Z,101148.56
2023-05-08T00:59:29.823Z,101163.06
2023-05-08T01:02:03.746Z,101146.94
2023-05-08T01:04:34.612Z,101154.38
2023-05-08T01:07:04.842Z,101163.34
2023-05-08T01:09:34.604Z,101157.06
2023-05-08T01:12:13.615Z,101157.88
2023-05-08T01:15:05.074Z,101159.13
2023-05-08T01:17:59.149Z,101166.13
2023-05-08T01:20:38.190Z,101159.72
2023-05-08T01:23:42.321Z,101161.59
2023-05-08T01:26:45.732Z,101163.94
2023-05-08T01:29:39.685Z,101167.97
2023-05-08T01:32:20.069Z,101162.44
2023-05-08T01:35:00.288Z,101159.84
2023-05-08T01:37:42.329Z,101158.88
2023-05-08T01:40:20.193Z,101163.84
2023-05-08T01:42:53.533Z,101166.75
2023-05-08T01:45:28.496Z,101168.53
2023-05-08T01:48:06.373Z,101162.59
2023-05-08T01:50:41.190Z,101170.63
2023-05-08T01:53:17.129Z,101171.38
2023-05-08T01:55:50.751Z,101167.44
2023-05-08T01:58:21.604Z,101165.78
2023-05-08T02:00:52.748Z,101168.31
2023-05-08T02:03:26.708Z,101168.38
2023-05-08T02:05:58.417Z,101174.41
2023-05-08T02:08:29.424Z,101171.66
2023-05-08T02:11:00.662Z,101173.06
2023-05-08T02:13:31.939Z,101172.22
2023-05-08T02:16:03.163Z,101178.09
2023-05-08T02:18:37.122Z,101177.19
2023-05-08T02:21:09.638Z,101179.72
2023-05-08T02:23:39.714Z,101184.09
2023-05-08T02:26:09.642Z,101185.81
2023-05-08T02:28:39.822Z,101189.13
2023-05-08T02:31:10.851Z,101189.63
2023-05-08T02:33:45.163Z,101186.97
2023-05-08T02:36:18.967Z,101184.16
2023-05-08T02:38:53.091Z,101185.66
2023-05-08T02:41:24.063Z,101181.59
2023-05-08T02:43:54.278Z,101195.31
2023-05-08T02:46:28.542Z,101192.56
2023-05-08T02:49:04.718Z,101201.19
2023-05-08T02:51:40.609Z,101205.72
2023-05-08T02:54:13.564Z,101202.09
2023-05-08T02:56:53.254Z,101203.69
2023-05-08T02:59:30.943Z,101201.91
2023-05-08T03:02:07.621Z,101201.84
2023-05-08T03:04:45.086Z,101200.13
2023-05-08T03:07:15.849Z,101206.38
2023-05-08T03:09:50.223Z,101206.13
2023-05-08T03:12:24.905Z,101201.59
2023-05-08T03:15:03.016Z,101211.50
2023-05-08T03:17:35.352Z,101205.66
2023-05-08T03:20:11.089Z,101214.00
2023-05-08T03:22:43.574Z,101212.41
2023-05-08T03:25:16.184Z,101216.13
2023-05-08T03:27:47.815Z,101213.13
2023-05-08T03:30:19.032Z,101214.16
2023-05-08T03:32:49.687Z,101215.03
2023-05-08T03:35:22.945Z,101221.28
2023-05-08T03:37:53.211Z,101211.66
2023-05-08T03:40:22.950Z,101220.16
2023-05-08T03:42:53.295Z,101212.31
2023-05-08T03:45:23.526Z,101218.63
2023-05-08T03:47:55.864Z,101221.22
2023-05-08T03:50:28.364Z,101228.69
2023-05-08T03:52:58.880Z,101228.31
2023-05-08T03:55:28.688Z,101227.28
2023-05-08T03:58:04.512Z,101228.66
2023-05-08T04:00:44.602Z,101241.06
2023-05-08T04:03:33.388Z,101247.03
2023-05-08T04:06:14.148Z,101245.59
2023-05-08T04:08:47.782Z,101245.16
2023-05-08T04:11:28.164Z,101249.28
2023-05-08T04:14:03.327Z,101242.94
2023-05-08T04:16:38.692Z,101251.81
2023-05-08T04:19:14.480Z,101239.78
2023-05-08T04:21:48.558Z,101244.84
2023-05-08T04:24:20.071Z,101254.94
2023-05-08T04:26:49.815Z,101260.44
2023-05-08T04:29:20.581Z,101261.41
2023-05-08T04:31:51.075Z,101258.75
2023-05-08T04:34:23.684Z,101266.63
2023-05-08T04:36:56.005Z,101274.72
2023-05-08T04:39:25.596Z,101277.22
2023-05-08T04:41:55.917Z,101280.00
2023-05-08T04:44:25.750Z,101285.09
2023-05-08T04:46:55.290Z,101286.88
2023-05-08T04:49:24.855Z,101292.78
2023-05-08T04:51:56.969Z,101296.97
2023-05-08T04:54:26.618Z,101295.44
2023-05-08T04:56:56.131Z,101294.50
2023-05-08T04:59:26.024Z,101299.22
2023-05-08T05:01:55.616Z,101305.72
2023-05-08T05:04:25.274Z,101307.31
2023-05-08T05:06:57.401Z,101301.66
2023-05-08T05:09:26.928Z,101306.91
2023-05-08T05:11:57.589Z,101312.19
2023-05-08T05:14:27.780Z,101303.88
2023-05-08T05:16:57.274Z,101309.38
2023-05-08T05:19:27.362Z,101309.50
2023-05-08T05:22:00.090Z,101312.25
2023-05-08T05:24:29.624Z,101314.16
2023-05-08T05:27:00.674Z,101313.03
2023-05-08T05:29:30.458Z,101313.47
2023-05-08T05:32:00.014Z,101315.47
2023-05-08T05:34:29.951Z,101317.53
2023-05-08T05:37:02.050Z,101309.34
2023-05-08T05:39:31.543Z,101312.28
2023-05-08T05:42:01.204Z,101315.97
2023-05-08T05:44:30.743Z,101310.25
2023-05-08T05:47:00.603Z,101315.97
2023-05-08T05:49:30.210Z,101318.13
2023-05-08T05:52:02.325Z,101318.84
2023-05-08T05:54:31.934Z,101319.97
2023-05-08T05:57:01.463Z,101323.50
2023-05-08T05:59:30.961Z,101326.25
2023-05-08T06:02:00.601Z,101321.91
2023-05-08T06:04:30.415Z,101318.81
2023-05-08T06:07:02.636Z,101321.44
2023-05-08T06:09:32.190Z,101312.97
2023-05-08T06:12:02.076Z,101317.88
2023-05-08T06:14:31.596Z,101319.81
2023-05-08T06:17:01.178Z,101326.31
2023-05-08T06:19:30.702Z,101333.00
2023-05-08T06:22:02.910Z,101328.84
2023-05-08T06:24:32.517Z,101332.34
2023-05-08T06:27:02.068Z,101333.41
2023-05-08T06:29:31.606Z,101338.72
2023-05-08T06:32:01.281Z,101338.38
2023-05-08T06:34:31.660Z,101333.22
2023-05-08T06:37:03.809Z,101337.44
2023-05-08T06:39:33.285Z,101338.91
2023-05-08T06:42:02.834Z,101350.56
2023-05-08T06:44:32.380Z,101350.25
2023-05-08T06:47:01.921Z,101354.44
2023-05-08T06:49:31.542Z,101348.31
2023-05-08T06:52:03.698Z,101344.53
2023-05-08T06:54:33.249Z,101346.06
2023-05-08T06:57:02.792Z,101353.28
2023-05-08T06:59:32.329Z,101353.97
2023-05-08T07:02:01.981Z,101360.28
2023-05-08T07:04:32.272Z,101358.28
2023-05-08T07:07:06.946Z,101350.44
2023-05-08T07:09:36.548Z,101348.00
2023-05-08T07:12:06.271Z,101355.63
2023-05-08T07:14:35.805Z,101368.78
2023-05-08T07:17:09.397Z,101363.28
2023-05-08T07:19:39.489Z,101357.78
2023-05-08T07:22:11.703Z,101357.78
2023-05-08T07:24:41.268Z,101362.19
2023-05-08T07:27:11.154Z,101345.88
2023-05-08T07:29:41.353Z,101354.84
2023-05-08T07:32:11.202Z,101349.34
2023-05-08T07:34:40.899Z,101355.81
2023-05-08T07:37:13.089Z,101361.84
2023-05-08T07:39:42.688Z,101353.41
2023-05-08T07:42:12.651Z,101376.03
2023-05-08T07:44:53.633Z,101363.25
2023-05-08T07:47:24.310Z,101353.91
2023-05-08T07:49:53.803Z,101371.94
2023-05-08T07:52:25.927Z,101371.34
2023-05-08T07:54:55.476Z,101349.19
2023-05-08T07:57:25.016Z,101358.63
2023-05-08T07:59:54.507Z,101353.47
2023-05-08T08:02:24.233Z,101369.56
2023-05-08T08:04:53.792Z,101361.72
2023-05-08T08:07:25.939Z,101346.31
2023-05-08T08:09:55.937Z,101360.13
2023-05-08T08:12:25.474Z,101379.34
2023-05-08T08:14:55.217Z,101377.53
2023-05-08T08:17:26.908Z,101360.59
2023-05-08T08:19:58.148Z,101372.56
2023-05-08T08:22:30.321Z,101342.72
2023-05-08T08:25:00.018Z,101376.81
2023-05-08T08:27:29.543Z,101347.22
2023-05-08T08:30:15.160Z,101346.59
2023-05-08T08:32:47.025Z,101340.53
2023-05-08T08:35:17.114Z,101352.59
2023-05-08T08:37:49.703Z,101349.94
2023-05-08T08:40:19.271Z,101370.03
2023-05-08T08:42:49.308Z,101335.34
2023-05-08T08:45:18.934Z,101342.69
2023-05-08T08:47:48.722Z,101365.81
2023-05-08T08:50:19.657Z,101338.38
2023-05-08T08:52:59.404Z,101329.59
2023-05-08T08:55:29.276Z,101326.66
2023-05-08T08:58:15.731Z,101356.06
2023-05-08T09:00:45.624Z,101322.53
2023-05-08T09:03:15.690Z,101344.22
2023-05-08T09:05:47.073Z,101334.63
2023-05-08T09:08:21.083Z,101347.16
2023-05-08T09:10:50.749Z,101342.00
2023-05-08T09:13:20.441Z,101355.22
2023-05-08T09:15:50.729Z,101342.34
2023-05-08T09:18:20.506Z,101341.72
2023-05-08T09:20:50.739Z,101352.56
2023-05-08T09:23:23.307Z,101346.13
2023-05-08T09:25:53.686Z,101380.44
2023-05-08T09:28:25.333Z,101331.16
2023-05-08T09:30:56.922Z,101350.19
2023-05-08T09:33:28.652Z,101361.69
2023-05-08T09:35:58.879Z,101351.16
2023-05-08T09:38:39.366Z,101347.47
2023-05-08T09:41:10.559Z,101370.25
2023-05-08T09:43:40.748Z,101347.16
2023-05-08T09:46:24.975Z,101359.28
2023-05-08T09:48:56.652Z,101362.53
2023-05-08T09:51:26.793Z,101355.16
2023-05-08T09:54:00.740Z,101341.75
2023-05-08T09:56:35.176Z,101338.50
2023-05-08T09:59:06.592Z,101347.75
2023-05-08T10:01:39.802Z,101344.75
2023-05-08T10:04:09.495Z,101355.56
2023-05-08T10:06:39.253Z,101344.00
2023-05-08T10:09:15.876Z,101349.63
2023-05-08T10:11:55.569Z,101328.53
2023-05-08T10:14:26.638Z,101343.19
2023-05-08T10:16:57.432Z,101343.75
2023-05-08T10:19:28.564Z,101338.31
2023-05-08T10:22:00.611Z,101335.97
2023-05-08T10:24:36.280Z,101326.31
2023-05-08T10:27:12.678Z,101327.91
2023-05-08T10:29:48.557Z,101352.69
2023-05-08T10:32:18.494Z,101310.03
2023-05-08T10:34:52.448Z,101320.38
2023-05-08T10:37:22.610Z,101306.44
2023-05-08T10:39:56.832Z,101310.81
2023-05-08T10:42:26.880Z,101309.31
2023-05-08T10:44:56.858Z,101314.03
2023-05-08T10:47:33.492Z,101298.13
2023-05-08T10:50:13.234Z,101295.44
2023-05-08T10:52:50.707Z,101284.75
2023-05-08T10:55:28.313Z,101299.78
2023-05-08T10:58:15.320Z,101302.31
2023-05-08T11:01:15.113Z,101301.63
2023-05-08T11:03:51.015Z,101298.13
2023-05-08T11:06:21.147Z,101285.78
2023-05-08T11:08:54.703Z,101302.06
2023-05-08T11:11:33.672Z,101297.22
2023-05-08T11:14:16.540Z,101291.94
2023-05-08T11:17:07.595Z,101287.50
2023-05-08T11:19:37.887Z,101298.78
2023-05-08T11:22:18.268Z,101296.28
2023-05-08T11:24:52.647Z,101278.59
2023-05-08T11:27:34.344Z,101290.97
2023-05-08T11:30:26.070Z,101293.72
2023-05-08T11:33:00.030Z,101299.50
2023-05-08T11:35:46.797Z,101278.53
2023-05-08T11:38:34.373Z,101271.44
2023-05-08T11:41:05.983Z,101284.00
2023-05-08T11:44:14.880Z,101275.03
2023-05-08T11:46:46.980Z,101285.53
2023-05-08T11:49:23.854Z,101274.06
2023-05-08T11:52:00.356Z,101274.06
2023-05-08T11:54:33.014Z,101265.91
2023-05-08T11:57:03.004Z,101273.19
2023-05-08T11:59:38.381Z,101264.94
2023-05-08T12:02:09.607Z,101268.38
2023-05-08T12:04:49.191Z,101284.75
2023-05-08T12:07:18.952Z,101259.25
2023-05-08T12:09:49.491Z,101256.75
2023-05-08T12:12:19.019Z,101290.28
2023-05-08T12:14:54.793Z,101272.00
2023-05-08T12:17:24.544Z,101273.66
2023-05-08T12:20:04.252Z,101232.97
2023-05-08T12:22:33.871Z,101268.03
2023-05-08T12:25:03.511Z,101256.84
2023-05-08T12:27:33.136Z,101273.66
2023-05-08T12:30:09.474Z,101257.00
2023-05-08T12:32:40.754Z,101261.44
2023-05-08T12:35:11.953Z,101271.16
2023-05-08T12:37:42.061Z,101272.97
2023-05-08T12:40:28.235Z,101272.84
2023-05-08T12:42:58.006Z,101262.44
2023-05-08T12:45:33.438Z,101257.91
2023-05-08T12:48:04.575Z,101257.94
2023-05-08T12:50:37.907Z,101250.97
2023-05-08T12:53:08.069Z,101249.13
2023-05-08T12:55:39.975Z,101245.63
2023-05-08T12:58:15.353Z,101253.59
2023-05-08T13:00:48.646Z,101239.44
2023-05-08T13:03:26.082Z,101241.06
2023-05-08T13:05:57.447Z,101232.44
2023-05-08T13:08:33.734Z,101243.94
2023-05-08T13:11:04.662Z,101242.22
2023-05-08T13:13:35.496Z,101218.44
2023-05-08T13:16:09.734Z,101226.44
2023-05-08T13:18:40.643Z,101233.59
2023-05-08T13:21:10.564Z,101238.78
2023-05-08T13:23:40.128Z,101230.88
2023-05-08T13:26:09.710Z,101229.09
2023-05-08T13:28:39.268Z,101229.03
2023-05-08T13:31:11.476Z,101220.25
2023-05-08T13:33:41.009Z,101210.50
2023-05-08T13:36:11.547Z,101237.00
2023-05-08T13:38:41.107Z,101218.31
2023-05-08T13:41:10.780Z,101226.31
2023-05-08T13:43:40.417Z,101227.25
2023-05-08T13:46:12.625Z,101210.41
2023-05-08T13:48:42.172Z,101198.94
2023-05-08T13:51:11.737Z,101201.63
2023-05-08T13:53:41.286Z,101196.41
2023-05-08T13:56:11.228Z,101206.16
2023-05-08T13:58:41.167Z,101188.47
2023-05-08T14:01:25.817Z,101194.66
2023-05-08T14:03:56.440Z,101197.38
2023-05-08T14:06:26.072Z,101177.03
2023-05-08T14:08:57.131Z,101199.03
2023-05-08T14:11:27.412Z,101203.44
2023-05-08T14:13:56.943Z,101203.50
2023-05-08T14:16:29.166Z,101191.94
2023-05-08T14:18:58.745Z,101196.41
2023-05-08T14:21:28.418Z,101183.19
2023-05-08T14:23:57.983Z,101178.78
2023-05-08T14:26:27.571Z,101189.38
2023-05-08T14:28:57.142Z,101180.56
2023-05-08T14:31:29.276Z,101182.38
2023-05-08T14:33:58.882Z,101183.25
2023-05-08T14:36:28.441Z,101173.53
2023-05-08T14:38:57.984Z,101203.50
2023-05-08T14:41:30.644Z,101182.31
2023-05-08T14:44:01.409Z,101173.50
2023-05-08T14:46:33.611Z,101184.16
2023-05-08T14:49:03.235Z,101187.63
2023-05-08T14:51:32.858Z,101190.31
2023-05-08T14:54:02.619Z,101180.59
2023-05-08T14:56:44.228Z,101187.66
2023-05-08T14:59:16.450Z,101190.34
2023-05-08T15:01:48.622Z,101189.41
2023-05-08T15:04:18.301Z,101186.75
2023-05-08T15:06:48.027Z,101177.06
2023-05-08T15:09:18.363Z,101177.09
2023-05-08T15:11:47.972Z,101198.28
2023-05-08T15:14:17.515Z,101182.34
2023-05-08T15:16:49.693Z,101177.06
2023-05-08T15:19:19.631Z,101175.31
2023-05-08T15:21:49.180Z,101179.69
2023-05-08T15:24:18.753Z,101178.84
2023-05-08T15:26:48.309Z,101190.31
2023-05-08T15:29:17.847Z,101185.03
2023-05-08T15:31:49.979Z,101194.69
2023-05-08T15:34:19.543Z,101169.97
2023-05-08T15:36:49.067Z,101163.78
2023-05-08T15:39:18.950Z,101165.59
2023-05-08T15:41:48.628Z,101154.97
2023-05-08T15:44:18.135Z,101155.88
2023-05-08T15:46:50.337Z,101160.28
2023-05-08T15:49:20.163Z,101160.25
2023-05-08T15:51:49.790Z,101159.41
2023-05-08T15:54:19.566Z,101169.13
2023-05-08T15:56:49.095Z,101167.34
2023-05-08T15:59:18.639Z,101156.69
2023-05-08T16:01:52.067Z,101168.19
2023-05-08T16:04:22.509Z,101166.41
2023-05-08T16:06:52.034Z,101171.69
2023-05-08T16:09:21.660Z,101169.03
2023-05-08T16:11:51.245Z,101162.88
2023-05-08T16:14:20.887Z,101154.94
2023-05-08T16:16:52.994Z,101166.41
2023-05-08T16:19:22.534Z,101163.72
2023-05-08T16:21:52.171Z,101146.09
2023-05-08T16:24:21.854Z,101161.97
2023-05-08T16:26:51.637Z,101146.06
2023-05-08T16:29:21.149Z,101149.59
2023-05-08T16:31:53.460Z,101139.00
2023-05-08T16:34:23.148Z,101145.13
2023-05-08T16:36:52.694Z,101152.22
2023-05-08T16:39:22.228Z,101148.66
2023-05-08T16:41:51.751Z,101151.31
2023-05-08T16:44:21.296Z,101149.53
2023-05-08T16:46:53.461Z,101160.09
2023-05-08T16:49:23.032Z,101151.28
2023-05-08T16:51:52.604Z,101151.25
2023-05-08T16:54:22.176Z,101151.25
2023-05-08T16:56:51.751Z,101145.03
2023-05-08T16:59:21.298Z,101151.25
2023-05-08T17:01:53.451Z,101155.63
2023-05-08T17:04:23.022Z,101147.69
2023-05-08T17:06:52.740Z,101141.53
2023-05-08T17:09:22.313Z,101137.97
2023-05-08T17:11:51.856Z,101140.59
2023-05-08T17:14:22.091Z,101130.03
2023-05-08T17:16:54.173Z,101143.22
2023-05-08T17:19:23.711Z,101148.47
2023-05-08T17:21:53.249Z,101151.09
2023-05-08T17:24:22.849Z,101144.03
2023-05-08T17:26:52.420Z,101148.38
2023-05-08T17:29:22.019Z,101136.03
2023-05-08T17:31:54.294Z,101152.72
2023-05-08T17:34:24.251Z,101151.75
2023-05-08T17:36:55.105Z,101142.94
2023-05-08T17:39:25.176Z,101141.09
2023-05-08T17:41:55.820Z,101147.25
2023-05-08T17:44:25.493Z,101160.44
2023-05-08T17:46:57.680Z,101152.50
2023-05-08T17:49:27.243Z,101163.03
2023-05-08T17:51:57.850Z,101156.78
2023-05-08T17:54:27.681Z,101163.78
2023-05-08T17:56:57.235Z,101153.09
2023-05-08T17:59:26.904Z,101161.84
2023-05-08T18:01:59.153Z,101162.72
2023-05-08T18:04:29.061Z,101168.72
2023-05-08T18:07:01.432Z,101166.91
2023-05-08T18:09:31.118Z,101165.03
2023-05-08T18:12:02.734Z,101163.19
2023-05-08T18:14:32.846Z,101171.00
2023-05-08T18:17:05.868Z,101177.09
2023-05-08T18:19:35.612Z,101172.59
2023-05-08T18:22:05.194Z,101175.09
2023-05-08T18:24:34.730Z,101174.16
2023-05-08T18:27:04.285Z,101174.78
2023-05-08T18:29:33.795Z,101179.91
2023-05-08T18:32:06.162Z,101180.66
2023-05-08T18:34:35.774Z,101179.63
2023-05-08T18:37:05.379Z,101184.75
2023-05-08T18:39:34.965Z,101187.34
2023-05-08T18:42:04.766Z,101189.00
2023-05-08T18:44:34.342Z,101188.00
2023-05-08T18:47:06.882Z,101196.56
2023-05-08T18:49:36.485Z,101196.31
2023-05-08T18:52:06.162Z,101196.88
2023-05-08T18:54:35.759Z,101197.66
2023-05-08T18:57:05.348Z,101200.91
2023-05-08T18:59:34.949Z,101199.91
2023-05-08T19:02:07.106Z,101199.81
2023-05-08T19:04:36.772Z,101205.75
2023-05-08T19:07:06.319Z,101199.50
2023-05-08T19:09:36.452Z,101202.88
2023-05-08T19:12:06.221Z,101214.03
2023-05-08T19:14:35.802Z,101212.97
2023-05-08T19:17:07.975Z,101212.84
2023-05-08T19:19:37.553Z,101205.63
2023-05-08T19:22:07.467Z,101210.00
2023-05-08T19:24:37.082Z,101210.81
2023-05-08T19:27:06.893Z,101215.81
2023-05-08T19:29:36.491Z,101216.75
2023-05-08T19:32:08.668Z,101211.19
2023-05-08T19:34:39.611Z,101210.16
2023-05-08T19:37:09.251Z,101210.75
2023-05-08T19:39:38.940Z,101207.88
2023-05-08T19:42:10.456Z,101200.56
2023-05-08T19:44:40.409Z,101203.06
2023-05-08T19:47:12.590Z,101216.91
2023-05-08T19:49:42.245Z,101209.28
2023-05-08T19:52:11.869Z,101207.31
2023-05-08T19:54:41.481Z,101202.84
2023-05-08T19:57:11.080Z,101209.81
2023-05-08T19:59:40.693Z,101203.31
2023-05-08T20:02:12.819Z,101206.94
2023-05-08T20:05:10.462Z,101203.28
2023-05-08T20:07:31.915Z,101208.34
2023-05-08T20:10:01.497Z,101206.44
2023-05-08T20:12:31.121Z,101205.66
2023-05-08T20:15:00.621Z,101202.00
2023-05-08T20:17:32.895Z,101210.78
2023-05-08T20:20:02.513Z,101206.22
2023-05-08T20:22:32.083Z,101204.97
2023-05-08T20:25:04.253Z,101205.69
2023-05-08T20:27:34.343Z,101202.88
2023-05-08T20:30:03.919Z,101199.97
2023-05-08T20:32:36.109Z,101207.50
2023-05-08T20:35:06.084Z,101200.34
2023-05-08T20:37:35.626Z,101206.25
2023-05-08T20:40:05.227Z,101203.06
2023-05-08T20:42:34.752Z,101208.72
2023-05-08T20:45:04.302Z,101211.78
2023-05-08T20:47:36.456Z,101213.34
2023-05-08T20:50:07.446Z,101207.16
2023-05-08T20:52:38.477Z,101205.09
2023-05-08T20:55:11.356Z,101204.09
2023-05-08T20:57:41.061Z,101209.97
2023-05-08T21:00:12.141Z,101212.47
2023-05-08T21:02:44.695Z,101208.66
2023-05-08T21:05:14.364Z,101201.13
2023-05-08T21:07:44.116Z,101200.09
2023-05-08T21:10:14.710Z,101202.41
2023-05-08T21:12:45.581Z,101201.50
2023-05-08T21:15:15.336Z,101194.28
2023-05-08T21:17:47.576Z,101193.94
2023-05-08T21:20:17.355Z,101198.84
2023-05-08T21:22:50.193Z,101190.16
2023-05-08T21:25:21.469Z,101187.50
2023-05-08T21:27:51.928Z,101187.50
2023-05-08T21:30:22.671Z,101181.81
2023-05-08T21:32:54.848Z,101193.66
2023-05-08T21:35:24.660Z,101194.69
2023-05-08T21:37:54.835Z,101186.81
2023-05-08T21:40:24.608Z,101194.63
2023-05-08T21:42:54.338Z,101186.03
2023-05-08T21:45:24.149Z,101183.72
2023-05-08T21:47:56.330Z,101193.03
2023-05-08T21:50:25.881Z,101193.44
2023-05-08T21:52:56.610Z,101182.81
2023-05-08T21:55:26.735Z,101181.84
2023-05-08T21:57:56.300Z,101175.91
2023-05-08T22:00:27.019Z,101179.25
2023-05-08T22:02:59.288Z,101186.09
2023-05-08T22:05:28.886Z,101184.25
2023-05-08T22:07:58.422Z,101182.38
2023-05-08T22:10:28.280Z,101181.53
2023-05-08T22:12:57.873Z,101176.81
2023-05-08T22:15:30.272Z,101175.59
2023-05-08T22:18:03.244Z,101167.03
2023-05-08T22:20:33.014Z,101166.25
2023-05-08T22:23:02.576Z,101161.50
2023-05-08T22:25:32.124Z,101160.19
2023-05-08T22:28:01.708Z,101163.31
2023-05-08T22:30:31.305Z,101157.53
2023-05-08T22:33:04.040Z,101159.84
2023-05-08T22:35:34.552Z,101160.91
2023-05-08T22:38:04.166Z,101156.88
2023-05-08T22:40:33.740Z,101150.06
2023-05-08T22:43:03.849Z,101155.28
2023-05-08T22:45:34.792Z,101150.25
2023-05-08T22:48:07.560Z,101146.78
2023-05-08T22:50:38.411Z,101140.53
2023-05-08T22:53:08.473Z,101146.59
2023-05-08T22:55:38.082Z,101144.59
2023-05-08T22:58:08.052Z,101146.22
2023-05-08T23:00:37.705Z,101145.91
2023-05-08T23:03:09.856Z,101147.47
2023-05-08T23:05:39.521Z,101151.91
2023-05-08T23:08:09.325Z,101149.53
2023-05-08T23:10:38.925Z,101145.84
2023-05-08T23:13:08.531Z,101145.63
2023-05-08T23:15:38.182Z,101146.47
2023-05-08T23:18:10.390Z,101145.28
2023-05-08T23:20:39.975Z,101140.66
2023-05-08T23:23:10.450Z,101141.50
2023-05-08T23:25:40.261Z,101143.53
2023-05-08T23:28:09.862Z,101143.91
2023-05-08T23:30:39.387Z,101148.38
2023-05-08T23:33:11.469Z,101141.06
2023-05-08T23:35:41.019Z,101132.53
2023-05-08T23:38:10.789Z,101138.59
2023-05-08T23:40:40.525Z,101138.66
2023-05-08T23:43:10.076Z,101129.66
2023-05-08T23:45:39.597Z,101129.78
2023-05-08T23:48:12.785Z,101132.47
2023-05-08T23:50:43.054Z,101129.09
2023-05-08T23:53:12.593Z,101128.72
2023-05-08T23:55:42.154Z,101128.34
2023-05-08T23:58:17.486Z,101128.34
